sensor_id;sensor_type;location;lat;lon;timestamp;P1;durP1;ratioP1;P2;durP2;ratioP2
76447;SDS011;65284;51.040;13.722;2023-09-08T00:02:11;11.32;;;5.80;;
76447;SDS011;65284;51.040;13.722;2023-09-08T00:04:38;8.65;;;5.20;;
76447;SDS011;65284;51.040;13.722;2023-09-08T00:07:05;8.88;;;5.47;;
76447;SDS011;65284;51.040;13.722;2023-09-08T00:09:32;7.78;;;5.25;;
76447;SDS011;65284;51.040;13.722;2023-09-08T00:12:01;10.60;;;5.78;;
76447;SDS011;65284;51.040;13.722;2023-09-08T00:14:28;9.07;;;5.70;;
76447;SDS011;65284;51.040;13.722;2023-09-08T00:16:55;9.40;;;5.07;;
76447;SDS011;65284;51.040;13.722;2023-09-08T00:19:21;8.27;;;5.35;;
76447;SDS011;65284;51.040;13.722;2023-09-08T00:21:49;7.57;;;5.15;;
76447;SDS011;65284;51.040;13.722;2023-09-08T00:24:16;8.70;;;5.05;;
76447;SDS011;65284;51.040;13.722;2023-09-08T00:26:44;9.93;;;5.70;;
76447;SDS011;65284;51.040;13.722;2023-09-08T00:29:10;8.35;;;5.18;;
76447;SDS011;65284;51.040;13.722;2023-09-08T00:31:37;11.27;;;5.32;;
76447;SDS011;65284;51.040;13.722;2023-09-08T00:34:03;9.70;;;5.70;;
76447;SDS011;65284;51.040;13.722;2023-09-08T00:36:30;8.13;;;5.32;;
76447;SDS011;65284;51.040;13.722;2023-09-08T00:38:57;8.57;;;5.40;;
76447;SDS011;65284;51.040;13.722;2023-09-08T00:41:23;8.80;;;5.28;;
76447;SDS011;65284;51.040;13.722;2023-09-08T00:43:50;8.35;;;5.15;;
76447;SDS011;65284;51.040;13.722;2023-09-08T00:46:17;8.45;;;5.63;;
76447;SDS011;65284;51.040;13.722;2023-09-08T00:48:44;8.75;;;5.65;;
76447;SDS011;65284;51.040;13.722;2023-09-08T00:51:10;7.78;;;5.50;;
76447;SDS011;65284;51.040;13.722;2023-09-08T00:53:37;9.20;;;5.10;;
76447;SDS011;65284;51.040;13.722;2023-09-08T00:56:04;7.45;;;5.03;;
76447;SDS011;65284;51.040;13.722;2023-09-08T00:58:31;9.35;;;5.20;;
76447;SDS011;65284;51.040;13.722;2023-09-08T01:00:58;9.82;;;6.00;;
76447;SDS011;65284;51.040;13.722;2023-09-08T01:03:25;7.63;;;5.13;;
76447;SDS011;65284;51.040;13.722;2023-09-08T01:05:52;10.85;;;5.65;;
76447;SDS011;65284;51.040;13.722;2023-09-08T01:08:19;11.27;;;5.18;;
76447;SDS011;65284;51.040;13.722;2023-09-08T01:10:46;10.13;;;5.43;;
76447;SDS011;65284;51.040;13.722;2023-09-08T01:13:12;8.60;;;5.40;;
76447;SDS011;65284;51.040;13.722;2023-09-08T01:15:39;8.93;;;5.60;;
76447;SDS011;65284;51.040;13.722;2023-09-08T01:18:05;10.60;;;5.95;;
76447;SDS011;65284;51.040;13.722;2023-09-08T01:23:36;9.40;;;5.28;;
76447;SDS011;65284;51.040;13.722;2023-09-08T01:26:20;9.65;;;5.22;;
76447;SDS011;65284;51.040;13.722;2023-09-08T01:28:51;9.73;;;5.35;;
76447;SDS011;65284;51.040;13.722;2023-09-08T01:31:19;11.32;;;5.80;;
76447;SDS011;65284;51.040;13.722;2023-09-08T01:33:46;10.05;;;5.90;;
76447;SDS011;65284;51.040;13.722;2023-09-08T01:36:13;9.23;;;5.70;;
76447;SDS011;65284;51.040;13.722;2023-09-08T01:38:40;9.57;;;5.68;;
76447;SDS011;65284;51.040;13.722;2023-09-08T01:41:07;10.18;;;5.63;;
76447;SDS011;65284;51.040;13.722;2023-09-08T01:43:33;8.55;;;5.30;;
76447;SDS011;65284;51.040;13.722;2023-09-08T01:46:00;9.80;;;5.53;;
76447;SDS011;65284;51.040;13.722;2023-09-08T01:48:27;9.80;;;5.43;;
76447;SDS011;65284;51.040;13.722;2023-09-08T01:50:53;10.27;;;5.70;;
76447;SDS011;65284;51.040;13.722;2023-09-08T02:00:51;9.57;;;5.88;;
76447;SDS011;65284;51.040;13.722;2023-09-08T02:03:17;8.82;;;5.72;;
76447;SDS011;65284;51.040;13.722;2023-09-08T02:05:44;8.48;;;5.40;;
76447;SDS011;65284;51.040;13.722;2023-09-08T02:08:11;8.70;;;5.20;;
76447;SDS011;65284;51.040;13.722;2023-09-08T02:10:39;9.45;;;5.63;;
76447;SDS011;65284;51.040;13.722;2023-09-08T02:13:06;9.52;;;5.53;;
76447;SDS011;65284;51.040;13.722;2023-09-08T02:15:34;9.13;;;5.10;;
76447;SDS011;65284;51.040;13.722;2023-09-08T02:18:01;11.45;;;5.75;;
76447;SDS011;65284;51.040;13.722;2023-09-08T02:20:28;8.82;;;5.63;;
76447;SDS011;65284;51.040;13.722;2023-09-08T02:22:54;11.25;;;5.85;;
76447;SDS011;65284;51.040;13.722;2023-09-08T02:25:23;9.20;;;5.25;;
76447;SDS011;65284;51.040;13.722;2023-09-08T02:27:50;8.77;;;5.70;;
76447;SDS011;65284;51.040;13.722;2023-09-08T02:30:16;8.77;;;5.88;;
76447;SDS011;65284;51.040;13.722;2023-09-08T02:32:43;13.85;;;7.22;;
76447;SDS011;65284;51.040;13.722;2023-09-08T02:35:10;9.57;;;6.00;;
76447;SDS011;65284;51.040;13.722;2023-09-08T02:37:36;8.13;;;5.20;;
76447;SDS011;65284;51.040;13.722;2023-09-08T02:40:04;10.48;;;5.88;;
76447;SDS011;65284;51.040;13.722;2023-09-08T02:42:32;10.77;;;6.13;;
76447;SDS011;65284;51.040;13.722;2023-09-08T02:44:58;10.68;;;5.50;;
76447;SDS011;65284;51.040;13.722;2023-09-08T02:47:25;10.60;;;6.43;;
76447;SDS011;65284;51.040;13.722;2023-09-08T02:49:51;11.00;;;5.80;;
76447;SDS011;65284;51.040;13.722;2023-09-08T02:52:18;10.07;;;5.47;;
76447;SDS011;65284;51.040;13.722;2023-09-08T02:54:46;10.32;;;5.25;;
76447;SDS011;65284;51.040;13.722;2023-09-08T02:57:12;7.25;;;5.00;;
76447;SDS011;65284;51.040;13.722;2023-09-08T02:59:39;9.82;;;5.97;;
76447;SDS011;65284;51.040;13.722;2023-09-08T03:02:05;8.80;;;5.25;;
76447;SDS011;65284;51.040;13.722;2023-09-08T03:04:32;7.43;;;5.00;;
76447;SDS011;65284;51.040;13.722;2023-09-08T03:06:58;9.75;;;5.88;;
76447;SDS011;65284;51.040;13.722;2023-09-08T03:09:24;9.10;;;5.25;;
76447;SDS011;65284;51.040;13.722;2023-09-08T03:11:51;7.95;;;5.75;;
76447;SDS011;65284;51.040;13.722;2023-09-08T03:14:17;10.48;;;5.38;;
76447;SDS011;65284;51.040;13.722;2023-09-08T03:16:44;10.45;;;5.68;;
76447;SDS011;65284;51.040;13.722;2023-09-08T03:19:11;9.07;;;5.72;;
76447;SDS011;65284;51.040;13.722;2023-09-08T03:21:37;11.15;;;6.45;;
76447;SDS011;65284;51.040;13.722;2023-09-08T03:24:03;10.57;;;5.88;;
76447;SDS011;65284;51.040;13.722;2023-09-08T03:26:30;8.50;;;5.57;;
76447;SDS011;65284;51.040;13.722;2023-09-08T03:28:57;8.82;;;5.50;;
76447;SDS011;65284;51.040;13.722;2023-09-08T03:31:23;11.50;;;5.95;;
76447;SDS011;65284;51.040;13.722;2023-09-08T03:33:50;10.18;;;5.75;;
76447;SDS011;65284;51.040;13.722;2023-09-08T03:36:16;10.43;;;5.80;;
76447;SDS011;65284;51.040;13.722;2023-09-08T03:38:43;9.65;;;5.55;;
76447;SDS011;65284;51.040;13.722;2023-09-08T03:41:10;9.35;;;5.57;;
76447;SDS011;65284;51.040;13.722;2023-09-08T03:43:37;9.50;;;5.22;;
76447;SDS011;65284;51.040;13.722;2023-09-08T03:46:03;9.02;;;5.22;;
76447;SDS011;65284;51.040;13.722;2023-09-08T03:48:30;9.30;;;6.00;;
76447;SDS011;65284;51.040;13.722;2023-09-08T03:50:56;9.98;;;6.20;;
76447;SDS011;65284;51.040;13.722;2023-09-08T03:53:23;8.35;;;5.13;;
76447;SDS011;65284;51.040;13.722;2023-09-08T03:55:49;9.20;;;5.30;;
76447;SDS011;65284;51.040;13.722;2023-09-08T03:58:16;10.10;;;5.68;;
76447;SDS011;65284;51.040;13.722;2023-09-08T04:00:43;9.25;;;5.30;;
76447;SDS011;65284;51.040;13.722;2023-09-08T04:03:09;9.85;;;5.65;;
76447;SDS011;65284;51.040;13.722;2023-09-08T04:05:36;9.88;;;5.18;;
76447;SDS011;65284;51.040;13.722;2023-09-08T04:08:02;9.55;;;5.88;;
76447;SDS011;65284;51.040;13.722;2023-09-08T04:10:29;8.82;;;6.00;;
76447;SDS011;65284;51.040;13.722;2023-09-08T04:12:55;9.60;;;5.53;;
76447;SDS011;65284;51.040;13.722;2023-09-08T04:15:22;9.27;;;5.18;;
76447;SDS011;65284;51.040;13.722;2023-09-08T04:17:48;10.25;;;5.95;;
76447;SDS011;65284;51.040;13.722;2023-09-08T04:20:15;8.95;;;5.95;;
76447;SDS011;65284;51.040;13.722;2023-09-08T04:22:42;14.77;;;6.38;;
76447;SDS011;65284;51.040;13.722;2023-09-08T04:25:09;9.35;;;6.15;;
76447;SDS011;65284;51.040;13.722;2023-09-08T04:27:36;8.85;;;5.70;;
76447;SDS011;65284;51.040;13.722;2023-09-08T04:30:04;12.18;;;6.60;;
76447;SDS011;65284;51.040;13.722;2023-09-08T04:32:31;12.25;;;6.30;;
76447;SDS011;65284;51.040;13.722;2023-09-08T04:34:58;11.25;;;6.65;;
76447;SDS011;65284;51.040;13.722;2023-09-08T04:37:24;12.23;;;6.57;;
76447;SDS011;65284;51.040;13.722;2023-09-08T04:39:50;11.48;;;6.10;;
76447;SDS011;65284;51.040;13.722;2023-09-08T04:42:17;11.10;;;6.63;;
76447;SDS011;65284;51.040;13.722;2023-09-08T04:44:43;10.65;;;6.15;;
76447;SDS011;65284;51.040;13.722;2023-09-08T04:47:13;14.05;;;6.43;;
76447;SDS011;65284;51.040;13.722;2023-09-08T04:49:39;12.02;;;6.28;;
76447;SDS011;65284;51.040;13.722;2023-09-08T04:52:06;17.42;;;6.22;;
76447;SDS011;65284;51.040;13.722;2023-09-08T04:54:33;12.63;;;5.70;;
76447;SDS011;65284;51.040;13.722;2023-09-08T04:56:59;12.45;;;5.80;;
76447;SDS011;65284;51.040;13.722;2023-09-08T04:59:47;14.90;;;6.50;;
76447;SDS011;65284;51.040;13.722;2023-09-08T05:02:13;10.40;;;5.75;;
76447;SDS011;65284;51.040;13.722;2023-09-08T05:04:40;11.88;;;6.00;;
76447;SDS011;65284;51.040;13.722;2023-09-08T05:07:06;13.00;;;5.90;;
76447;SDS011;65284;51.040;13.722;2023-09-08T05:09:32;11.18;;;5.93;;
76447;SDS011;65284;51.040;13.722;2023-09-08T05:12:00;11.30;;;5.80;;
76447;SDS011;65284;51.040;13.722;2023-09-08T05:14:26;10.88;;;6.70;;
76447;SDS011;65284;51.040;13.722;2023-09-08T05:16:53;10.30;;;6.32;;
76447;SDS011;65284;51.040;13.722;2023-09-08T05:21:53;12.23;;;6.90;;
76447;SDS011;65284;51.040;13.722;2023-09-08T05:24:21;11.27;;;6.10;;
76447;SDS011;65284;51.040;13.722;2023-09-08T05:26:47;11.02;;;6.15;;
76447;SDS011;65284;51.040;13.722;2023-09-08T05:29:14;11.25;;;6.05;;
76447;SDS011;65284;51.040;13.722;2023-09-08T05:31:40;19.38;;;12.63;;
76447;SDS011;65284;51.040;13.722;2023-09-08T05:34:07;19.48;;;12.00;;
76447;SDS011;65284;51.040;13.722;2023-09-08T05:36:33;10.32;;;7.32;;
76447;SDS011;65284;51.040;13.722;2023-09-08T05:39:03;13.00;;;6.53;;
76447;SDS011;65284;51.040;13.722;2023-09-08T05:41:29;15.77;;;7.13;;
76447;SDS011;65284;51.040;13.722;2023-09-08T05:43:56;11.43;;;6.40;;
76447;SDS011;65284;51.040;13.722;2023-09-08T05:46:22;12.32;;;6.75;;
76447;SDS011;65284;51.040;13.722;2023-09-08T05:48:49;12.40;;;6.38;;
76447;SDS011;65284;51.040;13.722;2023-09-08T05:51:15;11.18;;;6.32;;
76447;SDS011;65284;51.040;13.722;2023-09-08T05:53:42;9.55;;;5.70;;
76447;SDS011;65284;51.040;13.722;2023-09-08T05:56:09;10.85;;;6.40;;
76447;SDS011;65284;51.040;13.722;2023-09-08T05:58:36;12.10;;;6.45;;
76447;SDS011;65284;51.040;13.722;2023-09-08T06:01:03;10.77;;;6.00;;
76447;SDS011;65284;51.040;13.722;2023-09-08T06:03:30;12.25;;;6.10;;
76447;SDS011;65284;51.040;13.722;2023-09-08T06:05:56;13.55;;;6.57;;
76447;SDS011;65284;51.040;13.722;2023-09-08T06:08:23;15.27;;;9.52;;
76447;SDS011;65284;51.040;13.722;2023-09-08T06:10:50;13.35;;;8.30;;
76447;SDS011;65284;51.040;13.722;2023-09-08T06:13:17;10.70;;;6.63;;
76447;SDS011;65284;51.040;13.722;2023-09-08T06:15:43;13.23;;;8.48;;
76447;SDS011;65284;51.040;13.722;2023-09-08T06:18:10;10.27;;;6.38;;
76447;SDS011;65284;51.040;13.722;2023-09-08T06:20:43;9.95;;;5.78;;
76447;SDS011;65284;51.040;13.722;2023-09-08T06:23:10;11.35;;;6.03;;
76447;SDS011;65284;51.040;13.722;2023-09-08T06:25:37;12.88;;;6.32;;
76447;SDS011;65284;51.040;13.722;2023-09-08T06:28:03;11.38;;;5.93;;
76447;SDS011;65284;51.040;13.722;2023-09-08T06:30:30;11.63;;;5.75;;
76447;SDS011;65284;51.040;13.722;2023-09-08T06:32:56;10.07;;;5.47;;
76447;SDS011;65284;51.040;13.722;2023-09-08T06:35:25;9.93;;;5.72;;
76447;SDS011;65284;51.040;13.722;2023-09-08T06:37:52;11.73;;;6.20;;
76447;SDS011;65284;51.040;13.722;2023-09-08T06:40:19;12.77;;;6.03;;
76447;SDS011;65284;51.040;13.722;2023-09-08T06:42:45;9.70;;;5.93;;
76447;SDS011;65284;51.040;13.722;2023-09-08T06:45:12;11.52;;;5.93;;
76447;SDS011;65284;51.040;13.722;2023-09-08T06:47:39;10.85;;;6.07;;
76447;SDS011;65284;51.040;13.722;2023-09-08T06:50:06;11.88;;;6.40;;
76447;SDS011;65284;51.040;13.722;2023-09-08T06:52:33;13.07;;;5.70;;
76447;SDS011;65284;51.040;13.722;2023-09-08T06:54:59;9.85;;;5.75;;
76447;SDS011;65284;51.040;13.722;2023-09-08T06:57:26;13.55;;;7.10;;
76447;SDS011;65284;51.040;13.722;2023-09-08T06:59:53;11.75;;;6.30;;
76447;SDS011;65284;51.040;13.722;2023-09-08T07:02:19;11.73;;;7.38;;
76447;SDS011;65284;51.040;13.722;2023-09-08T07:04:46;11.27;;;6.40;;
76447;SDS011;65284;51.040;13.722;2023-09-08T07:07:13;15.27;;;7.72;;
76447;SDS011;65284;51.040;13.722;2023-09-08T07:09:40;9.60;;;6.50;;
76447;SDS011;65284;51.040;13.722;2023-09-08T07:12:06;10.27;;;6.68;;
76447;SDS011;65284;51.040;13.722;2023-09-08T07:14:33;11.82;;;7.60;;
76447;SDS011;65284;51.040;13.722;2023-09-08T07:16:59;12.25;;;7.22;;
76447;SDS011;65284;51.040;13.722;2023-09-08T07:19:26;12.07;;;6.63;;
76447;SDS011;65284;51.040;13.722;2023-09-08T07:21:53;11.93;;;6.70;;
76447;SDS011;65284;51.040;13.722;2023-09-08T07:24:20;12.00;;;6.90;;
76447;SDS011;65284;51.040;13.722;2023-09-08T07:26:47;11.57;;;7.05;;
76447;SDS011;65284;51.040;13.722;2023-09-08T07:29:13;10.70;;;6.00;;
76447;SDS011;65284;51.040;13.722;2023-09-08T07:31:40;10.15;;;5.85;;
76447;SDS011;65284;51.040;13.722;2023-09-08T07:34:06;10.82;;;6.13;;
76447;SDS011;65284;51.040;13.722;2023-09-08T07:36:33;14.55;;;6.85;;
76447;SDS011;65284;51.040;13.722;2023-09-08T07:41:28;12.00;;;5.70;;
76447;SDS011;65284;51.040;13.722;2023-09-08T07:43:55;9.95;;;5.70;;
76447;SDS011;65284;51.040;13.722;2023-09-08T07:46:21;10.77;;;5.53;;
76447;SDS011;65284;51.040;13.722;2023-09-08T07:48:49;8.60;;;5.40;;
76447;SDS011;65284;51.040;13.722;2023-09-08T07:51:16;10.77;;;5.68;;
76447;SDS011;65284;51.040;13.722;2023-09-08T07:53:42;11.57;;;6.03;;
76447;SDS011;65284;51.040;13.722;2023-09-08T07:56:08;11.13;;;6.50;;
76447;SDS011;65284;51.040;13.722;2023-09-08T07:58:36;12.13;;;5.80;;
76447;SDS011;65284;51.040;13.722;2023-09-08T08:01:05;11.23;;;6.15;;
76447;SDS011;65284;51.040;13.722;2023-09-08T08:03:31;8.60;;;5.60;;
76447;SDS011;65284;51.040;13.722;2023-09-08T08:05:58;10.20;;;5.80;;
76447;SDS011;65284;51.040;13.722;2023-09-08T08:08:25;10.65;;;6.50;;
76447;SDS011;65284;51.040;13.722;2023-09-08T08:10:51;9.50;;;5.78;;
76447;SDS011;65284;51.040;13.722;2023-09-08T08:13:18;11.65;;;5.90;;
76447;SDS011;65284;51.040;13.722;2023-09-08T08:15:44;14.00;;;6.38;;
76447;SDS011;65284;51.040;13.722;2023-09-08T08:18:14;11.73;;;7.00;;
76447;SDS011;65284;51.040;13.722;2023-09-08T08:20:41;9.70;;;6.30;;
76447;SDS011;65284;51.040;13.722;2023-09-08T08:23:08;17.67;;;5.78;;
76447;SDS011;65284;51.040;13.722;2023-09-08T08:25:34;12.20;;;6.30;;
76447;SDS011;65284;51.040;13.722;2023-09-08T08:28:01;11.38;;;6.78;;
76447;SDS011;65284;51.040;13.722;2023-09-08T08:30:27;9.88;;;6.22;;
76447;SDS011;65284;51.040;13.722;2023-09-08T08:32:54;9.82;;;6.00;;
76447;SDS011;65284;51.040;13.722;2023-09-08T08:35:21;10.90;;;5.70;;
76447;SDS011;65284;51.040;13.722;2023-09-08T08:37:47;10.73;;;6.22;;
76447;SDS011;65284;51.040;13.722;2023-09-08T08:40:14;8.40;;;5.70;;
76447;SDS011;65284;51.040;13.722;2023-09-08T08:42:41;9.93;;;5.60;;
76447;SDS011;65284;51.040;13.722;2023-09-08T08:45:08;11.35;;;5.63;;
76447;SDS011;65284;51.040;13.722;2023-09-08T08:47:35;8.80;;;5.30;;
76447;SDS011;65284;51.040;13.722;2023-09-08T08:50:02;9.38;;;5.47;;
76447;SDS011;65284;51.040;13.722;2023-09-08T08:52:30;8.43;;;5.68;;
76447;SDS011;65284;51.040;13.722;2023-09-08T08:54:57;9.43;;;5.90;;
76447;SDS011;65284;51.040;13.722;2023-09-08T08:57:24;9.82;;;5.55;;
76447;SDS011;65284;51.040;13.722;2023-09-08T08:59:53;9.13;;;5.28;;
76447;SDS011;65284;51.040;13.722;2023-09-08T09:02:20;9.50;;;6.13;;
76447;SDS011;65284;51.040;13.722;2023-09-08T09:04:48;8.68;;;6.00;;
76447;SDS011;65284;51.040;13.722;2023-09-08T09:07:15;9.55;;;6.10;;
76447;SDS011;65284;51.040;13.722;2023-09-08T09:09:44;8.93;;;5.20;;
76447;SDS011;65284;51.040;13.722;2023-09-08T09:12:11;15.65;;;5.35;;
76447;SDS011;65284;51.040;13.722;2023-09-08T09:14:38;8.50;;;5.20;;
76447;SDS011;65284;51.040;13.722;2023-09-08T09:17:04;9.40;;;5.20;;
76447;SDS011;65284;51.040;13.722;2023-09-08T09:19:31;8.25;;;4.78;;
76447;SDS011;65284;51.040;13.722;2023-09-08T09:21:59;10.52;;;5.40;;
76447;SDS011;65284;51.040;13.722;2023-09-08T09:24:30;8.43;;;5.22;;
76447;SDS011;65284;51.040;13.722;2023-09-08T09:27:03;9.60;;;5.60;;
76447;SDS011;65284;51.040;13.722;2023-09-08T09:29:33;10.52;;;5.72;;
76447;SDS011;65284;51.040;13.722;2023-09-08T09:32:05;9.68;;;6.00;;
76447;SDS011;65284;51.040;13.722;2023-09-08T09:34:34;8.70;;;4.93;;
76447;SDS011;65284;51.040;13.722;2023-09-08T09:37:01;9.07;;;5.35;;
76447;SDS011;65284;51.040;13.722;2023-09-08T09:39:28;10.13;;;5.15;;
76447;SDS011;65284;51.040;13.722;2023-09-08T09:41:55;10.27;;;4.63;;
76447;SDS011;65284;51.040;13.722;2023-09-08T09:44:23;6.47;;;4.53;;
76447;SDS011;65284;51.040;13.722;2023-09-08T09:46:53;9.70;;;4.78;;
76447;SDS011;65284;51.040;13.722;2023-09-08T09:49:20;8.68;;;4.38;;
76447;SDS011;65284;51.040;13.722;2023-09-08T09:51:47;6.07;;;3.90;;
76447;SDS011;65284;51.040;13.722;2023-09-08T09:54:15;7.05;;;3.63;;
76447;SDS011;65284;51.040;13.722;2023-09-08T09:56:43;9.70;;;4.28;;
76447;SDS011;65284;51.040;13.722;2023-09-08T09:59:12;6.20;;;3.60;;
76447;SDS011;65284;51.040;13.722;2023-09-08T10:01:40;8.80;;;4.00;;
76447;SDS011;65284;51.040;13.722;2023-09-08T10:04:08;7.07;;;3.85;;
76447;SDS011;65284;51.040;13.722;2023-09-08T10:06:37;7.47;;;3.75;;
76447;SDS011;65284;51.040;13.722;2023-09-08T10:09:05;8.82;;;3.72;;
76447;SDS011;65284;51.040;13.722;2023-09-08T10:14:10;6.63;;;3.40;;
76447;SDS011;65284;51.040;13.722;2023-09-08T10:16:39;9.27;;;3.50;;
76447;SDS011;65284;51.040;13.722;2023-09-08T10:19:09;11.00;;;3.67;;
76447;SDS011;65284;51.040;13.722;2023-09-08T10:21:39;8.02;;;3.42;;
76447;SDS011;65284;51.040;13.722;2023-09-08T10:24:11;6.88;;;3.67;;
76447;SDS011;65284;51.040;13.722;2023-09-08T10:26:43;7.80;;;3.40;;
76447;SDS011;65284;51.040;13.722;2023-09-08T10:29:10;6.20;;;3.95;;
76447;SDS011;65284;51.040;13.722;2023-09-08T10:31:38;5.93;;;3.60;;
76447;SDS011;65284;51.040;13.722;2023-09-08T10:34:05;6.65;;;3.47;;
76447;SDS011;65284;51.040;13.722;2023-09-08T10:36:34;4.95;;;3.30;;
76447;SDS011;65284;51.040;13.722;2023-09-08T10:39:26;7.25;;;3.60;;
76447;SDS011;65284;51.040;13.722;2023-09-08T10:47:13;6.63;;;3.90;;
76447;SDS011;65284;51.040;13.722;2023-09-08T10:49:40;9.23;;;3.70;;
76447;SDS011;65284;51.040;13.722;2023-09-08T10:52:08;6.75;;;3.60;;
76447;SDS011;65284;51.040;13.722;2023-09-08T10:54:45;5.72;;;3.45;;
76447;SDS011;65284;51.040;13.722;2023-09-08T10:57:15;8.48;;;3.55;;
76447;SDS011;65284;51.040;13.722;2023-09-08T10:59:58;8.70;;;3.83;;
76447;SDS011;65284;51.040;13.722;2023-09-08T11:03:09;6.72;;;4.45;;
76447;SDS011;65284;51.040;13.722;2023-09-08T11:05:17;7.25;;;4.22;;
76447;SDS011;65284;51.040;13.722;2023-09-08T11:07:47;7.20;;;3.50;;
76447;SDS011;65284;51.040;13.722;2023-09-08T11:10:15;5.63;;;3.28;;
76447;SDS011;65284;51.040;13.722;2023-09-08T11:12:42;8.68;;;3.55;;
76447;SDS011;65284;51.040;13.722;2023-09-08T11:15:09;7.78;;;3.67;;
76447;SDS011;65284;51.040;13.722;2023-09-08T11:17:36;6.65;;;3.75;;
76447;SDS011;65284;51.040;13.722;2023-09-08T11:20:06;6.35;;;3.65;;
76447;SDS011;65284;51.040;13.722;2023-09-08T11:22:35;5.20;;;3.28;;
76447;SDS011;65284;51.040;13.722;2023-09-08T11:25:03;6.40;;;3.40;;
76447;SDS011;65284;51.040;13.722;2023-09-08T11:27:33;8.23;;;3.30;;
76447;SDS011;65284;51.040;13.722;2023-09-08T11:30:00;7.22;;;3.20;;
76447;SDS011;65284;51.040;13.722;2023-09-08T11:32:33;7.28;;;3.70;;
76447;SDS011;65284;51.040;13.722;2023-09-08T11:35:04;5.50;;;3.45;;
76447;SDS011;65284;51.040;13.722;2023-09-08T11:37:41;6.18;;;3.20;;
76447;SDS011;65284;51.040;13.722;2023-09-08T11:40:08;6.80;;;3.53;;
76447;SDS011;65284;51.040;13.722;2023-09-08T11:42:42;5.30;;;3.20;;
76447;SDS011;65284;51.040;13.722;2023-09-08T11:45:12;6.97;;;3.80;;
76447;SDS011;65284;51.040;13.722;2023-09-08T11:47:44;7.53;;;3.20;;
76447;SDS011;65284;51.040;13.722;2023-09-08T11:50:11;7.72;;;3.58;;
76447;SDS011;65284;51.040;13.722;2023-09-08T11:52:43;6.68;;;3.30;;
76447;SDS011;65284;51.040;13.722;2023-09-08T11:55:10;7.57;;;3.42;;
76447;SDS011;65284;51.040;13.722;2023-09-08T11:57:38;12.32;;;3.78;;
76447;SDS011;65284;51.040;13.722;2023-09-08T12:00:06;6.82;;;3.78;;
76447;SDS011;65284;51.040;13.722;2023-09-08T12:02:36;6.20;;;3.38;;
76447;SDS011;65284;51.040;13.722;2023-09-08T12:05:03;5.78;;;3.67;;
76447;SDS011;65284;51.040;13.722;2023-09-08T12:07:30;5.57;;;3.25;;
76447;SDS011;65284;51.040;13.722;2023-09-08T12:09:57;6.18;;;3.90;;
76447;SDS011;65284;51.040;13.722;2023-09-08T12:12:25;7.30;;;3.17;;
76447;SDS011;65284;51.040;13.722;2023-09-08T12:14:53;6.10;;;3.40;;
76447;SDS011;65284;51.040;13.722;2023-09-08T12:17:20;7.55;;;3.30;;
76447;SDS011;65284;51.040;13.722;2023-09-08T12:19:51;7.63;;;3.72;;
76447;SDS011;65284;51.040;13.722;2023-09-08T12:22:18;5.88;;;3.90;;
76447;SDS011;65284;51.040;13.722;2023-09-08T12:24:57;6.22;;;3.65;;
76447;SDS011;65284;51.040;13.722;2023-09-08T12:27:25;6.53;;;3.50;;
76447;SDS011;65284;51.040;13.722;2023-09-08T12:29:56;7.05;;;4.22;;
76447;SDS011;65284;51.040;13.722;2023-09-08T12:32:24;6.68;;;3.80;;
76447;SDS011;65284;51.040;13.722;2023-09-08T12:34:52;7.70;;;3.88;;
76447;SDS011;65284;51.040;13.722;2023-09-08T12:37:22;6.13;;;3.80;;
76447;SDS011;65284;51.040;13.722;2023-09-08T12:39:50;6.38;;;3.55;;
76447;SDS011;65284;51.040;13.722;2023-09-08T12:42:17;8.70;;;4.00;;
76447;SDS011;65284;51.040;13.722;2023-09-08T12:44:44;9.48;;;3.90;;
76447;SDS011;65284;51.040;13.722;2023-09-08T12:47:11;9.10;;;3.80;;
76447;SDS011;65284;51.040;13.722;2023-09-08T12:49:40;6.07;;;3.53;;
76447;SDS011;65284;51.040;13.722;2023-09-08T12:52:07;6.53;;;3.70;;
76447;SDS011;65284;51.040;13.722;2023-09-08T12:54:33;6.22;;;3.83;;
76447;SDS011;65284;51.040;13.722;2023-09-08T12:57:00;7.90;;;3.83;;
76447;SDS011;65284;51.040;13.722;2023-09-08T12:59:29;6.75;;;3.35;;
76447;SDS011;65284;51.040;13.722;2023-09-08T13:01:55;5.82;;;3.42;;
76447;SDS011;65284;51.040;13.722;2023-09-08T13:04:22;5.40;;;3.35;;
76447;SDS011;65284;51.040;13.722;2023-09-08T13:06:49;5.47;;;3.30;;
76447;SDS011;65284;51.040;13.722;2023-09-08T13:09:15;8.25;;;3.67;;
76447;SDS011;65284;51.040;13.722;2023-09-08T13:11:42;5.97;;;3.75;;
76447;SDS011;65284;51.040;13.722;2023-09-08T13:14:09;8.32;;;4.07;;
76447;SDS011;65284;51.040;13.722;2023-09-08T13:16:35;6.55;;;3.42;;
76447;SDS011;65284;51.040;13.722;2023-09-08T13:19:02;6.22;;;3.45;;
76447;SDS011;65284;51.040;13.722;2023-09-08T13:21:30;8.00;;;3.88;;
76447;SDS011;65284;51.040;13.722;2023-09-08T13:23:56;7.90;;;3.53;;
76447;SDS011;65284;51.040;13.722;2023-09-08T13:26:23;6.07;;;3.55;;
76447;SDS011;65284;51.040;13.722;2023-09-08T13:28:49;8.45;;;3.50;;
76447;SDS011;65284;51.040;13.722;2023-09-08T13:31:16;6.00;;;4.15;;
76447;SDS011;65284;51.040;13.722;2023-09-08T13:33:43;6.63;;;3.60;;
76447;SDS011;65284;51.040;13.722;2023-09-08T13:36:09;6.00;;;3.80;;
76447;SDS011;65284;51.040;13.722;2023-09-08T13:38:36;7.40;;;3.80;;
76447;SDS011;65284;51.040;13.722;2023-09-08T13:41:03;5.55;;;3.63;;
76447;SDS011;65284;51.040;13.722;2023-09-08T13:43:30;7.15;;;4.32;;
76447;SDS011;65284;51.040;13.722;2023-09-08T13:45:56;5.72;;;3.45;;
76447;SDS011;65284;51.040;13.722;2023-09-08T13:48:23;11.88;;;5.10;;
76447;SDS011;65284;51.040;13.722;2023-09-08T13:50:51;8.13;;;4.75;;
76447;SDS011;65284;51.040;13.722;2023-09-08T13:53:19;7.30;;;4.47;;
76447;SDS011;65284;51.040;13.722;2023-09-08T13:55:46;8.23;;;5.07;;
76447;SDS011;65284;51.040;13.722;2023-09-08T13:58:16;12.68;;;6.30;;
76447;SDS011;65284;51.040;13.722;2023-09-08T14:00:46;7.40;;;4.43;;
76447;SDS011;65284;51.040;13.722;2023-09-08T14:03:16;6.60;;;4.63;;
76447;SDS011;65284;51.040;13.722;2023-09-08T14:05:47;8.57;;;4.13;;
76447;SDS011;65284;51.040;13.722;2023-09-08T14:08:20;8.15;;;3.97;;
76447;SDS011;65284;51.040;13.722;2023-09-08T14:11:06;6.68;;;4.07;;
76447;SDS011;65284;51.040;13.722;2023-09-08T14:13:41;8.73;;;3.80;;
76447;SDS011;65284;51.040;13.722;2023-09-08T14:16:09;6.93;;;4.20;;
76447;SDS011;65284;51.040;13.722;2023-09-08T14:18:36;6.55;;;4.30;;
76447;SDS011;65284;51.040;13.722;2023-09-08T14:21:03;6.03;;;3.58;;
76447;SDS011;65284;51.040;13.722;2023-09-08T14:23:30;8.23;;;3.80;;
76447;SDS011;65284;51.040;13.722;2023-09-08T14:25:57;6.60;;;3.95;;
76447;SDS011;65284;51.040;13.722;2023-09-08T14:28:23;7.00;;;3.75;;
76447;SDS011;65284;51.040;13.722;2023-09-08T14:30:50;10.07;;;7.13;;
76447;SDS011;65284;51.040;13.722;2023-09-08T14:33:17;5.82;;;3.38;;
76447;SDS011;65284;51.040;13.722;2023-09-08T14:35:44;6.35;;;3.40;;
76447;SDS011;65284;51.040;13.722;2023-09-08T14:38:12;4.93;;;3.20;;
76447;SDS011;65284;51.040;13.722;2023-09-08T14:40:39;5.50;;;2.90;;
76447;SDS011;65284;51.040;13.722;2023-09-08T14:43:05;5.13;;;3.15;;
76447;SDS011;65284;51.040;13.722;2023-09-08T14:45:32;4.85;;;3.22;;
76447;SDS011;65284;51.040;13.722;2023-09-08T14:47:58;6.75;;;3.08;;
76447;SDS011;65284;51.040;13.722;2023-09-08T14:50:27;9.15;;;3.70;;
76447;SDS011;65284;51.040;13.722;2023-09-08T14:52:53;4.82;;;2.92;;
76447;SDS011;65284;51.040;13.722;2023-09-08T14:55:20;6.25;;;3.28;;
76447;SDS011;65284;51.040;13.722;2023-09-08T14:57:46;5.20;;;2.95;;